sensor_id;sensor_type;location;lat;lon;timestamp;P1;durP1;ratioP1;P2;durP2;ratioP2
32080;SDS011;18593;51.426;7.030;2023-04-25T00:00:33;23.17;;;6.75;;
32080;SDS011;18593;51.426;7.030;2023-04-25T00:03:02;17.33;;;6.55;;
32080;SDS011;18593;51.426;7.030;2023-04-25T00:05:30;16.00;;;5.97;;
32080;SDS011;18593;51.426;7.030;2023-04-25T00:07:58;18.25;;;6.28;;
32080;SDS011;18593;51.426;7.030;2023-04-25T00:10:25;21.45;;;5.50;;
32080;SDS011;18593;51.426;7.030;2023-04-25T00:12:52;22.88;;;6.07;;
32080;SDS011;18593;51.426;7.030;2023-04-25T00:15:19;21.17;;;6.40;;
32080;SDS011;18593;51.426;7.030;2023-04-25T00:17:47;18.65;;;5.57;;
32080;SDS011;18593;51.426;7.030;2023-04-25T00:20:15;16.00;;;5.30;;
32080;SDS011;18593;51.426;7.030;2023-04-25T00:22:42;20.88;;;6.03;;
32080;SDS011;18593;51.426;7.030;2023-04-25T00:25:09;18.00;;;5.50;;
32080;SDS011;18593;51.426;7.030;2023-04-25T00:27:37;16.00;;;6.03;;
32080;SDS011;18593;51.426;7.030;2023-04-25T00:30:07;17.92;;;5.75;;
32080;SDS011;18593;51.426;7.030;2023-04-25T00:32:35;17.00;;;5.80;;
32080;SDS011;18593;51.426;7.030;2023-04-25T00:35:03;14.43;;;4.88;;
32080;SDS011;18593;51.426;7.030;2023-04-25T00:37:32;12.73;;;4.80;;
32080;SDS011;18593;51.426;7.030;2023-04-25T00:40:00;14.63;;;5.50;;
32080;SDS011;18593;51.426;7.030;2023-04-25T00:42:27;12.68;;;4.72;;
32080;SDS011;18593;51.426;7.030;2023-04-25T00:44:55;13.43;;;4.78;;
32080;SDS011;18593;51.426;7.030;2023-04-25T00:47:23;16.63;;;5.03;;
32080;SDS011;18593;51.426;7.030;2023-04-25T00:49:51;17.67;;;4.95;;
32080;SDS011;18593;51.426;7.030;2023-04-25T00:52:19;16.75;;;5.55;;
32080;SDS011;18593;51.426;7.030;2023-04-25T00:54:48;16.75;;;5.32;;
32080;SDS011;18593;51.426;7.030;2023-04-25T00:57:15;18.17;;;5.55;;
32080;SDS011;18593;51.426;7.030;2023-04-25T00:59:44;15.52;;;5.03;;
32080;SDS011;18593;51.426;7.030;2023-04-25T01:02:13;13.73;;;5.45;;
32080;SDS011;18593;51.426;7.030;2023-04-25T01:04:40;13.80;;;5.30;;
32080;SDS011;18593;51.426;7.030;2023-04-25T01:07:08;14.90;;;5.40;;
32080;SDS011;18593;51.426;7.030;2023-04-25T01:09:36;18.38;;;6.20;;
32080;SDS011;18593;51.426;7.030;2023-04-25T01:12:05;16.33;;;5.63;;
32080;SDS011;18593;51.426;7.030;2023-04-25T01:14:33;17.42;;;5.85;;
32080;SDS011;18593;51.426;7.030;2023-04-25T01:17:00;17.83;;;6.20;;
32080;SDS011;18593;51.426;7.030;2023-04-25T01:19:27;18.40;;;6.00;;
32080;SDS011;18593;51.426;7.030;2023-04-25T01:21:58;20.80;;;6.55;;
32080;SDS011;18593;51.426;7.030;2023-04-25T01:24:25;17.33;;;6.18;;
32080;SDS011;18593;51.426;7.030;2023-04-25T01:26:54;15.23;;;6.90;;
32080;SDS011;18593;51.426;7.030;2023-04-25T01:29:23;19.75;;;6.40;;
32080;SDS011;18593;51.426;7.030;2023-04-25T01:31:51;13.93;;;6.40;;
32080;SDS011;18593;51.426;7.030;2023-04-25T01:34:20;16.58;;;6.35;;
32080;SDS011;18593;51.426;7.030;2023-04-25T01:36:47;17.40;;;6.70;;
32080;SDS011;18593;51.426;7.030;2023-04-25T01:39:17;20.25;;;6.88;;
32080;SDS011;18593;51.426;7.030;2023-04-25T01:41:45;14.10;;;6.18;;
32080;SDS011;18593;51.426;7.030;2023-04-25T01:44:14;16.73;;;6.93;;
32080;SDS011;18593;51.426;7.030;2023-04-25T01:46:41;20.60;;;6.68;;
32080;SDS011;18593;51.426;7.030;2023-04-25T01:49:10;17.23;;;6.22;;
32080;SDS011;18593;51.426;7.030;2023-04-25T01:51:38;20.13;;;6.72;;
32080;SDS011;18593;51.426;7.030;2023-04-25T01:54:06;14.55;;;6.18;;
32080;SDS011;18593;51.426;7.030;2023-04-25T01:56:36;17.88;;;6.32;;
32080;SDS011;18593;51.426;7.030;2023-04-25T01:59:06;14.55;;;6.78;;
32080;SDS011;18593;51.426;7.030;2023-04-25T02:01:42;19.13;;;6.72;;
32080;SDS011;18593;51.426;7.030;2023-04-25T02:04:23;18.83;;;7.00;;
32080;SDS011;18593;51.426;7.030;2023-04-25T02:06:51;15.70;;;6.07;;
32080;SDS011;18593;51.426;7.030;2023-04-25T02:09:18;17.60;;;6.07;;
32080;SDS011;18593;51.426;7.030;2023-04-25T02:11:52;19.05;;;6.88;;
32080;SDS011;18593;51.426;7.030;2023-04-25T02:14:38;20.83;;;7.03;;
32080;SDS011;18593;51.426;7.030;2023-04-25T02:17:21;16.55;;;6.22;;
32080;SDS011;18593;51.426;7.030;2023-04-25T02:19:50;14.40;;;5.80;;
32080;SDS011;18593;51.426;7.030;2023-04-25T02:22:17;15.88;;;6.22;;
32080;SDS011;18593;51.426;7.030;2023-04-25T02:24:45;17.52;;;6.82;;
32080;SDS011;18593;51.426;7.030;2023-04-25T02:27:14;19.42;;;7.07;;
32080;SDS011;18593;51.426;7.030;2023-04-25T02:29:41;15.85;;;6.32;;
32080;SDS011;18593;51.426;7.030;2023-04-25T02:32:10;17.65;;;6.55;;
32080;SDS011;18593;51.426;7.030;2023-04-25T02:34:37;18.48;;;7.35;;
32080;SDS011;18593;51.426;7.030;2023-04-25T02:37:04;19.30;;;7.28;;
32080;SDS011;18593;51.426;7.030;2023-04-25T02:39:31;17.13;;;6.85;;
32080;SDS011;18593;51.426;7.030;2023-04-25T02:41:59;18.25;;;6.82;;
32080;SDS011;18593;51.426;7.030;2023-04-25T02:44:30;18.55;;;7.18;;
32080;SDS011;18593;51.426;7.030;2023-04-25T02:46:57;15.05;;;6.20;;
32080;SDS011;18593;51.426;7.030;2023-04-25T02:49:24;23.23;;;7.28;;
32080;SDS011;18593;51.426;7.030;2023-04-25T02:51:51;19.05;;;7.53;;
32080;SDS011;18593;51.426;7.030;2023-04-25T02:54:18;14.63;;;7.63;;
32080;SDS011;18593;51.426;7.030;2023-04-25T02:56:47;19.17;;;7.47;;
32080;SDS011;18593;51.426;7.030;2023-04-25T02:59:21;21.17;;;8.27;;
32080;SDS011;18593;51.426;7.030;2023-04-25T03:01:50;19.15;;;7.95;;
32080;SDS011;18593;51.426;7.030;2023-04-25T03:04:17;20.60;;;7.57;;
32080;SDS011;18593;51.426;7.030;2023-04-25T03:06:46;24.30;;;9.25;;
32080;SDS011;18593;51.426;7.030;2023-04-25T03:09:13;20.15;;;8.77;;
32080;SDS011;18593;51.426;7.030;2023-04-25T03:11:41;20.67;;;7.75;;
32080;SDS011;18593;51.426;7.030;2023-04-25T03:14:08;18.35;;;9.15;;
32080;SDS011;18593;51.426;7.030;2023-04-25T03:16:35;20.40;;;8.70;;
32080;SDS011;18593;51.426;7.030;2023-04-25T03:19:04;18.52;;;9.38;;
32080;SDS011;18593;51.426;7.030;2023-04-25T03:21:32;24.02;;;9.20;;
32080;SDS011;18593;51.426;7.030;2023-04-25T03:24:01;20.23;;;8.55;;
32080;SDS011;18593;51.426;7.030;2023-04-25T03:26:30;20.85;;;9.57;;
32080;SDS011;18593;51.426;7.030;2023-04-25T03:28:58;20.13;;;9.40;;
32080;SDS011;18593;51.426;7.030;2023-04-25T03:31:26;24.35;;;9.48;;
32080;SDS011;18593;51.426;7.030;2023-04-25T03:33:53;26.88;;;9.07;;
32080;SDS011;18593;51.426;7.030;2023-04-25T03:36:24;19.90;;;9.23;;
32080;SDS011;18593;51.426;7.030;2023-04-25T03:38:51;25.10;;;10.10;;
32080;SDS011;18593;51.426;7.030;2023-04-25T03:41:20;21.13;;;9.32;;
32080;SDS011;18593;51.426;7.030;2023-04-25T03:43:54;19.20;;;8.98;;
32080;SDS011;18593;51.426;7.030;2023-04-25T03:46:21;22.05;;;9.02;;
32080;SDS011;18593;51.426;7.030;2023-04-25T03:48:48;22.48;;;9.30;;
32080;SDS011;18593;51.426;7.030;2023-04-25T03:51:24;21.17;;;9.13;;
32080;SDS011;18593;51.426;7.030;2023-04-25T03:53:52;25.83;;;9.18;;
32080;SDS011;18593;51.426;7.030;2023-04-25T03:56:31;24.73;;;9.20;;
32080;SDS011;18593;51.426;7.030;2023-04-25T03:59:05;20.52;;;10.07;;
32080;SDS011;18593;51.426;7.030;2023-04-25T04:01:33;19.75;;;8.93;;
32080;SDS011;18593;51.426;7.030;2023-04-25T04:04:01;22.75;;;8.95;;
32080;SDS011;18593;51.426;7.030;2023-04-25T04:06:30;25.85;;;8.55;;
32080;SDS011;18593;51.426;7.030;2023-04-25T04:09:07;25.83;;;9.38;;
32080;SDS011;18593;51.426;7.030;2023-04-25T04:11:37;22.58;;;8.77;;
32080;SDS011;18593;51.426;7.030;2023-04-25T04:14:05;19.80;;;8.63;;
32080;SDS011;18593;51.426;7.030;2023-04-25T04:16:36;25.98;;;8.23;;
32080;SDS011;18593;51.426;7.030;2023-04-25T04:19:03;24.60;;;8.52;;
32080;SDS011;18593;51.426;7.030;2023-04-25T04:21:32;26.83;;;7.88;;
32080;SDS011;18593;51.426;7.030;2023-04-25T04:24:01;24.50;;;7.00;;
32080;SDS011;18593;51.426;7.030;2023-04-25T04:26:34;30.20;;;8.77;;
32080;SDS011;18593;51.426;7.030;2023-04-25T04:29:11;27.95;;;8.70;;
32080;SDS011;18593;51.426;7.030;2023-04-25T04:31:55;23.23;;;9.25;;
32080;SDS011;18593;51.426;7.030;2023-04-25T04:34:23;25.45;;;9.40;;
32080;SDS011;18593;51.426;7.030;2023-04-25T04:36:52;30.50;;;9.48;;
32080;SDS011;18593;51.426;7.030;2023-04-25T04:39:20;23.38;;;8.65;;
32080;SDS011;18593;51.426;7.030;2023-04-25T04:41:59;29.75;;;9.50;;
32080;SDS011;18593;51.426;7.030;2023-04-25T04:44:51;30.13;;;9.65;;
32080;SDS011;18593;51.426;7.030;2023-04-25T04:47:42;24.27;;;9.60;;
32080;SDS011;18593;51.426;7.030;2023-04-25T04:50:31;31.10;;;8.73;;
32080;SDS011;18593;51.426;7.030;2023-04-25T04:53:14;28.13;;;7.95;;
32080;SDS011;18593;51.426;7.030;2023-04-25T04:55:55;22.75;;;7.63;;
32080;SDS011;18593;51.426;7.030;2023-04-25T04:58:47;31.00;;;8.00;;
32080;SDS011;18593;51.426;7.030;2023-04-25T05:04:19;19.98;;;7.70;;
32080;SDS011;18593;51.426;7.030;2023-04-25T05:06:46;25.08;;;8.00;;
32080;SDS011;18593;51.426;7.030;2023-04-25T05:09:27;22.38;;;6.72;;
32080;SDS011;18593;51.426;7.030;2023-04-25T05:12:21;21.83;;;7.20;;
32080;SDS011;18593;51.426;7.030;2023-04-25T05:15:14;21.73;;;6.80;;
32080;SDS011;18593;51.426;7.030;2023-04-25T05:18:09;25.88;;;7.18;;
32080;SDS011;18593;51.426;7.030;2023-04-25T05:20:55;24.23;;;7.10;;
32080;SDS011;18593;51.426;7.030;2023-04-25T05:23:47;21.33;;;6.45;;
32080;SDS011;18593;51.426;7.030;2023-04-25T05:26:42;23.95;;;6.55;;
32080;SDS011;18593;51.426;7.030;2023-04-25T05:29:42;20.55;;;6.95;;
32080;SDS011;18593;51.426;7.030;2023-04-25T05:32:19;25.88;;;6.97;;
32080;SDS011;18593;51.426;7.030;2023-04-25T05:34:48;28.77;;;7.22;;
32080;SDS011;18593;51.426;7.030;2023-04-25T05:37:41;21.88;;;6.82;;
32080;SDS011;18593;51.426;7.030;2023-04-25T05:40:10;22.02;;;6.75;;
32080;SDS011;18593;51.426;7.030;2023-04-25T05:42:45;27.52;;;7.05;;
32080;SDS011;18593;51.426;7.030;2023-04-25T05:45:47;29.70;;;6.78;;
32080;SDS011;18593;51.426;7.030;2023-04-25T05:48:30;20.85;;;6.90;;
32080;SDS011;18593;51.426;7.030;2023-04-25T05:51:08;17.10;;;6.28;;
32080;SDS011;18593;51.426;7.030;2023-04-25T05:54:11;26.30;;;7.07;;
32080;SDS011;18593;51.426;7.030;2023-04-25T05:56:39;24.67;;;7.00;;
32080;SDS011;18593;51.426;7.030;2023-04-25T05:59:07;27.48;;;7.40;;
32080;SDS011;18593;51.426;7.030;2023-04-25T06:01:34;22.13;;;7.00;;
32080;SDS011;18593;51.426;7.030;2023-04-25T06:04:02;26.92;;;6.63;;
32080;SDS011;18593;51.426;7.030;2023-04-25T06:06:31;29.02;;;6.55;;
32080;SDS011;18593;51.426;7.030;2023-04-25T06:08:58;23.60;;;6.45;;
32080;SDS011;18593;51.426;7.030;2023-04-25T06:11:26;19.98;;;6.38;;
32080;SDS011;18593;51.426;7.030;2023-04-25T06:13:53;22.65;;;6.68;;
32080;SDS011;18593;51.426;7.030;2023-04-25T06:16:22;23.42;;;6.53;;
32080;SDS011;18593;51.426;7.030;2023-04-25T06:18:51;23.30;;;6.90;;
32080;SDS011;18593;51.426;7.030;2023-04-25T06:21:18;18.27;;;6.18;;
32080;SDS011;18593;51.426;7.030;2023-04-25T06:23:46;18.75;;;7.03;;
32080;SDS011;18593;51.426;7.030;2023-04-25T06:26:19;25.77;;;6.32;;
32080;SDS011;18593;51.426;7.030;2023-04-25T06:28:46;22.20;;;6.30;;
32080;SDS011;18593;51.426;7.030;2023-04-25T06:31:14;20.05;;;6.45;;
32080;SDS011;18593;51.426;7.030;2023-04-25T06:33:43;31.08;;;7.25;;
32080;SDS011;18593;51.426;7.030;2023-04-25T06:36:11;21.88;;;6.00;;
32080;SDS011;18593;51.426;7.030;2023-04-25T06:38:39;25.55;;;6.82;;
32080;SDS011;18593;51.426;7.030;2023-04-25T06:41:06;19.92;;;6.10;;
32080;SDS011;18593;51.426;7.030;2023-04-25T06:43:35;21.55;;;5.53;;
32080;SDS011;18593;51.426;7.030;2023-04-25T06:46:22;23.33;;;6.28;;
32080;SDS011;18593;51.426;7.030;2023-04-25T06:48:51;19.92;;;6.40;;
32080;SDS011;18593;51.426;7.030;2023-04-25T06:51:19;19.02;;;5.65;;
32080;SDS011;18593;51.426;7.030;2023-04-25T06:53:47;23.67;;;6.78;;
32080;SDS011;18593;51.426;7.030;2023-04-25T06:56:24;18.58;;;5.03;;
32080;SDS011;18593;51.426;7.030;2023-04-25T06:59:00;21.70;;;4.78;;
32080;SDS011;18593;51.426;7.030;2023-04-25T07:01:32;21.20;;;5.10;;
32080;SDS011;18593;51.426;7.030;2023-04-25T07:04:05;19.95;;;5.75;;
32080;SDS011;18593;51.426;7.030;2023-04-25T07:06:34;17.33;;;4.55;;
32080;SDS011;18593;51.426;7.030;2023-04-25T07:09:03;14.73;;;4.43;;
32080;SDS011;18593;51.426;7.030;2023-04-25T07:11:31;16.40;;;4.50;;
32080;SDS011;18593;51.426;7.030;2023-04-25T07:13:58;14.27;;;3.35;;
32080;SDS011;18593;51.426;7.030;2023-04-25T07:16:25;12.98;;;3.92;;
32080;SDS011;18593;51.426;7.030;2023-04-25T07:18:53;16.67;;;4.10;;
32080;SDS011;18593;51.426;7.030;2023-04-25T07:21:21;18.95;;;3.80;;
32080;SDS011;18593;51.426;7.030;2023-04-25T07:23:50;14.77;;;3.58;;
32080;SDS011;18593;51.426;7.030;2023-04-25T07:26:22;15.45;;;4.43;;
32080;SDS011;18593;51.426;7.030;2023-04-25T07:29:15;18.85;;;3.90;;
32080;SDS011;18593;51.426;7.030;2023-04-25T07:31:43;15.50;;;4.18;;
32080;SDS011;18593;51.426;7.030;2023-04-25T07:34:10;15.07;;;4.10;;
32080;SDS011;18593;51.426;7.030;2023-04-25T07:36:39;20.60;;;4.55;;
32080;SDS011;18593;51.426;7.030;2023-04-25T07:39:07;21.45;;;4.15;;
32080;SDS011;18593;51.426;7.030;2023-04-25T07:41:35;17.75;;;5.00;;
32080;SDS011;18593;51.426;7.030;2023-04-25T07:44:02;192.13;;;14.40;;
32080;SDS011;18593;51.426;7.030;2023-04-25T07:46:31;297.02;;;22.52;;
32080;SDS011;18593;51.426;7.030;2023-04-25T07:48:58;109.22;;;10.23;;
32080;SDS011;18593;51.426;7.030;2023-04-25T07:51:26;217.05;;;17.40;;
32080;SDS011;18593;51.426;7.030;2023-04-25T07:53:58;24.13;;;4.03;;
32080;SDS011;18593;51.426;7.030;2023-04-25T07:56:26;19.48;;;4.78;;
32080;SDS011;18593;51.426;7.030;2023-04-25T07:58:53;14.60;;;4.07;;
32080;SDS011;18593;51.426;7.030;2023-04-25T08:01:23;15.63;;;3.15;;
32080;SDS011;18593;51.426;7.030;2023-04-25T08:03:56;12.68;;;2.92;;
32080;SDS011;18593;51.426;7.030;2023-04-25T08:06:47;13.52;;;3.17;;
32080;SDS011;18593;51.426;7.030;2023-04-25T08:09:21;20.90;;;3.42;;
32080;SDS011;18593;51.426;7.030;2023-04-25T08:11:48;14.82;;;3.05;;
32080;SDS011;18593;51.426;7.030;2023-04-25T08:14:20;18.15;;;3.10;;
32080;SDS011;18593;51.426;7.030;2023-04-25T08:16:47;16.80;;;3.28;;
32080;SDS011;18593;51.426;7.030;2023-04-25T08:19:15;10.35;;;2.65;;
32080;SDS011;18593;51.426;7.030;2023-04-25T08:21:44;11.15;;;3.00;;
32080;SDS011;18593;51.426;7.030;2023-04-25T08:24:15;17.00;;;3.10;;
32080;SDS011;18593;51.426;7.030;2023-04-25T08:26:44;14.07;;;2.50;;
32080;SDS011;18593;51.426;7.030;2023-04-25T08:29:14;13.65;;;2.95;;
32080;SDS011;18593;51.426;7.030;2023-04-25T08:31:42;12.27;;;3.05;;
32080;SDS011;18593;51.426;7.030;2023-04-25T08:34:09;18.17;;;3.30;;
32080;SDS011;18593;51.426;7.030;2023-04-25T08:36:42;14.27;;;2.60;;
32080;SDS011;18593;51.426;7.030;2023-04-25T08:39:32;13.87;;;3.47;;
32080;SDS011;18593;51.426;7.030;2023-04-25T08:42:39;15.98;;;3.15;;
32080;SDS011;18593;51.426;7.030;2023-04-25T08:45:08;22.42;;;3.47;;
32080;SDS011;18593;51.426;7.030;2023-04-25T08:47:38;13.95;;;3.03;;
32080;SDS011;18593;51.426;7.030;2023-04-25T08:50:07;12.10;;;2.83;;
32080;SDS011;18593;51.426;7.030;2023-04-25T08:52:36;15.93;;;3.53;;
32080;SDS011;18593;51.426;7.030;2023-04-25T08:55:10;16.50;;;3.50;;
32080;SDS011;18593;51.426;7.030;2023-04-25T08:57:42;17.42;;;2.92;;
32080;SDS011;18593;51.426;7.030;2023-04-25T09:00:10;15.45;;;3.20;;
32080;SDS011;18593;51.426;7.030;2023-04-25T09:02:42;15.68;;;3.05;;
32080;SDS011;18593;51.426;7.030;2023-04-25T09:05:10;10.73;;;2.65;;
32080;SDS011;18593;51.426;7.030;2023-04-25T09:07:40;17.05;;;2.70;;
32080;SDS011;18593;51.426;7.030;2023-04-25T09:10:08;11.80;;;2.70;;
32080;SDS011;18593;51.426;7.030;2023-04-25T09:12:37;10.60;;;2.70;;
32080;SDS011;18593;51.426;7.030;2023-04-25T09:15:09;14.13;;;2.80;;
32080;SDS011;18593;51.426;7.030;2023-04-25T09:17:55;13.55;;;3.00;;
32080;SDS011;18593;51.426;7.030;2023-04-25T09:20:25;16.40;;;3.70;;
32080;SDS011;18593;51.426;7.030;2023-04-25T09:23:02;11.10;;;2.70;;
32080;SDS011;18593;51.426;7.030;2023-04-25T09:25:34;19.30;;;3.53;;
32080;SDS011;18593;51.426;7.030;2023-04-25T09:28:05;13.50;;;2.78;;
32080;SDS011;18593;51.426;7.030;2023-04-25T09:30:35;9.10;;;2.35;;
32080;SDS011;18593;51.426;7.030;2023-04-25T09:33:27;12.68;;;3.05;;
32080;SDS011;18593;51.426;7.030;2023-04-25T09:36:01;14.32;;;2.45;;
32080;SDS011;18593;51.426;7.030;2023-04-25T09:38:46;11.52;;;2.38;;
32080;SDS011;18593;51.426;7.030;2023-04-25T09:41:39;10.57;;;2.30;;
32080;SDS011;18593;51.426;7.030;2023-04-25T09:44:08;13.65;;;2.67;;
32080;SDS011;18593;51.426;7.030;2023-04-25T09:46:42;14.98;;;2.28;;
32080;SDS011;18593;51.426;7.030;2023-04-25T09:49:17;15.02;;;2.85;;
32080;SDS011;18593;51.426;7.030;2023-04-25T09:51:58;9.88;;;2.35;;
32080;SDS011;18593;51.426;7.030;2023-04-25T09:54:35;11.43;;;2.17;;
32080;SDS011;18593;51.426;7.030;2023-04-25T09:57:09;10.50;;;2.30;;
32080;SDS011;18593;51.426;7.030;2023-04-25T09:59:43;10.25;;;3.00;;
32080;SDS011;18593;51.426;7.030;2023-04-25T10:02:13;9.32;;;2.05;;
32080;SDS011;18593;51.426;7.030;2023-04-25T10:04:44;11.02;;;2.65;;
32080;SDS011;18593;51.426;7.030;2023-04-25T10:07:29;10.77;;;2.15;;
32080;SDS011;18593;51.426;7.030;2023-04-25T10:09:59;8.73;;;2.30;;
32080;SDS011;18593;51.426;7.030;2023-04-25T10:12:28;9.02;;;1.90;;
32080;SDS011;18593;51.426;7.030;2023-04-25T10:14:57;8.23;;;2.00;;
32080;SDS011;18593;51.426;7.030;2023-04-25T10:17:27;10.55;;;2.08;;
32080;SDS011;18593;51.426;7.030;2023-04-25T10:19:54;8.45;;;2.67;;
32080;SDS011;18593;51.426;7.030;2023-04-25T10:22:23;7.50;;;1.98;;
32080;SDS011;18593;51.426;7.030;2023-04-25T10:24:58;9.23;;;2.10;;
32080;SDS011;18593;51.426;7.030;2023-04-25T10:27:26;9.77;;;1.80;;
32080;SDS011;18593;51.426;7.030;2023-04-25T10:29:59;11.32;;;3.40;;
32080;SDS011;18593;51.426;7.030;2023-04-25T10:32:31;10.40;;;2.10;;
32080;SDS011;18593;51.426;7.030;2023-04-25T10:35:08;8.45;;;2.08;;
32080;SDS011;18593;51.426;7.030;2023-04-25T10:37:38;9.70;;;2.17;;
32080;SDS011;18593;51.426;7.030;2023-04-25T10:40:23;10.77;;;2.50;;
32080;SDS011;18593;51.426;7.030;2023-04-25T10:42:51;12.35;;;2.88;;
32080;SDS011;18593;51.426;7.030;2023-04-25T10:45:19;10.57;;;2.00;;
32080;SDS011;18593;51.426;7.030;2023-04-25T10:47:48;11.77;;;2.67;;
32080;SDS011;18593;51.426;7.030;2023-04-25T10:50:15;8.95;;;2.38;;
32080;SDS011;18593;51.426;7.030;2023-04-25T10:52:43;9.05;;;2.70;;
32080;SDS011;18593;51.426;7.030;2023-04-25T10:55:10;7.97;;;1.75;;
32080;SDS011;18593;51.426;7.030;2023-04-25T10:57:39;9.70;;;1.98;;
32080;SDS011;18593;51.426;7.030;2023-04-25T11:00:10;9.68;;;1.90;;
32080;SDS011;18593;51.426;7.030;2023-04-25T11:02:41;14.07;;;2.47;;
32080;SDS011;18593;51.426;7.030;2023-04-25T11:05:18;9.55;;;2.30;;
32080;SDS011;18593;51.426;7.030;2023-04-25T11:07:55;9.23;;;2.35;;
32080;SDS011;18593;51.426;7.030;2023-04-25T11:10:25;9.38;;;2.08;;
32080;SDS011;18593;51.426;7.030;2023-04-25T11:12:53;10.95;;;2.20;;
32080;SDS011;18593;51.426;7.030;2023-04-25T11:15:20;12.00;;;2.30;;
32080;SDS011;18593;51.426;7.030;2023-04-25T11:17:48;10.23;;;2.78;;
32080;SDS011;18593;51.426;7.030;2023-04-25T11:20:18;12.43;;;2.33;;
32080;SDS011;18593;51.426;7.030;2023-04-25T11:22:46;10.20;;;2.17;;
32080;SDS011;18593;51.426;7.030;2023-04-25T11:25:14;8.38;;;2.47;;
32080;SDS011;18593;51.426;7.030;2023-04-25T11:27:51;9.48;;;2.25;;
32080;SDS011;18593;51.426;7.030;2023-04-25T11:30:20;11.95;;;2.50;;
32080;SDS011;18593;51.426;7.030;2023-04-25T11:32:49;9.48;;;2.33;;
32080;SDS011;18593;51.426;7.030;2023-04-25T11:35:18;9.55;;;2.03;;
32080;SDS011;18593;51.426;7.030;2023-04-25T11:37:48;7.85;;;2.40;;
32080;SDS011;18593;51.426;7.030;2023-04-25T11:40:15;11.75;;;2.25;;
32080;SDS011;18593;51.426;7.030;2023-04-25T11:42:43;8.57;;;1.73;;
32080;SDS011;18593;51.426;7.030;2023-04-25T11:45:12;10.57;;;2.45;;
32080;SDS011;18593;51.426;7.030;2023-04-25T11:47:40;10.40;;;2.05;;
32080;SDS011;18593;51.426;7.030;2023-04-25T11:50:09;8.52;;;2.40;;
32080;SDS011;18593;51.426;7.030;2023-04-25T11:52:38;10.00;;;2.38;;
32080;SDS011;18593;51.426;7.030;2023-04-25T11:55:07;7.75;;;2.15;;
32080;SDS011;18593;51.426;7.030;2023-04-25T11:57:39;8.13;;;2.60;;
32080;SDS011;18593;51.426;7.030;2023-04-25T12:00:08;9.85;;;2.42;;
32080;SDS011;18593;51.426;7.030;2023-04-25T12:02:40;9.93;;;2.17;;
32080;SDS011;18593;51.426;7.030;2023-04-25T12:05:08;8.60;;;2.45;;
32080;SDS011;18593;51.426;7.030;2023-04-25T12:07:36;9.07;;;2.10;;
32080;SDS011;18593;51.426;7.030;2023-04-25T12:10:07;10.55;;;2.53;;
32080;SDS011;18593;51.426;7.030;2023-04-25T12:12:36;7.43;;;2.17;;
32080;SDS011;18593;51.426;7.030;2023-04-25T12:15:10;7.57;;;2.50;;
32080;SDS011;18593;51.426;7.030;2023-04-25T12:17:41;6.97;;;2.08;;
32080;SDS011;18593;51.426;7.030;2023-04-25T12:20:12;10.00;;;2.38;;
32080;SDS011;18593;51.426;7.030;2023-04-25T12:22:42;9.68;;;2.33;;
32080;SDS011;18593;51.426;7.030;2023-04-25T12:25:11;11.48;;;2.95;;
32080;SDS011;18593;51.426;7.030;2023-04-25T12:27:39;17.13;;;3.17;;
32080;SDS011;18593;51.426;7.030;2023-04-25T12:30:09;14.85;;;2.55;;
32080;SDS011;18593;51.426;7.030;2023-04-25T12:32:37;13.77;;;3.00;;
32080;SDS011;18593;51.426;7.030;2023-04-25T12:35:05;7.50;;;2.50;;
32080;SDS011;18593;51.426;7.030;2023-04-25T12:37:38;9.57;;;2.53;;
32080;SDS011;18593;51.426;7.030;2023-04-25T12:40:07;10.82;;;2.42;;
32080;SDS011;18593;51.426;7.030;2023-04-25T12:42:36;9.43;;;2.35;;
32080;SDS011;18593;51.426;7.030;2023-04-25T12:45:03;9.10;;;2.60;;
32080;SDS011;18593;51.426;7.030;2023-04-25T12:47:31;9.18;;;1.95;;
32080;SDS011;18593;51.426;7.030;2023-04-25T12:50:00;9.82;;;2.15;;
32080;SDS011;18593;51.426;7.030;2023-04-25T12:52:27;9.55;;;1.83;;
32080;SDS011;18593;51.426;7.030;2023-04-25T12:54:54;6.72;;;1.67;;
32080;SDS011;18593;51.426;7.030;2023-04-25T12:57:23;6.78;;;1.73;;
32080;SDS011;18593;51.426;7.030;2023-04-25T12:59:51;5.72;;;1.48;;
32080;SDS011;18593;51.426;7.030;2023-04-25T13:02:18;7.35;;;1.80;;
32080;SDS011;18593;51.426;7.030;2023-04-25T13:04:45;6.28;;;1.80;;
32080;SDS011;18593;51.426;7.030;2023-04-25T13:07:12;8.45;;;2.20;;
32080;SDS011;18593;51.426;7.030;2023-04-25T13:09:41;10.23;;;2.20;;
32080;SDS011;18593;51.426;7.030;2023-04-25T13:12:08;12.30;;;2.42;;
32080;SDS011;18593;51.426;7.030;2023-04-25T13:14:36;6.57;;;2.20;;
32080;SDS011;18593;51.426;7.030;2023-04-25T13:17:04;6.80;;;1.95;;
32080;SDS011;18593;51.426;7.030;2023-04-25T13:19:31;9.20;;;1.75;;
32080;SDS011;18593;51.426;7.030;2023-04-25T13:21:58;10.40;;;1.85;;
32080;SDS011;18593;51.426;7.030;2023-04-25T13:24:26;4.35;;;1.52;;
32080;SDS011;18593;51.426;7.030;2023-04-25T13:26:53;8.00;;;1.60;;
32080;SDS011;18593;51.426;7.030;2023-04-25T13:29:20;6.68;;;2.13;;
32080;SDS011;18593;51.426;7.030;2023-04-25T13:31:49;10.68;;;1.98;;
32080;SDS011;18593;51.426;7.030;2023-04-25T13:34:16;10.20;;;2.03;;
32080;SDS011;18593;51.426;7.030;2023-04-25T13:36:43;8.88;;;2.15;;
32080;SDS011;18593;51.426;7.030;2023-04-25T13:39:10;9.02;;;2.10;;
32080;SDS011;18593;51.426;7.030;2023-04-25T13:41:37;9.27;;;2.20;;
32080;SDS011;18593;51.426;7.030;2023-04-25T13:44:05;12.63;;;2.20;;
32080;SDS011;18593;51.426;7.030;2023-04-25T13:46:32;9.82;;;1.90;;
32080;SDS011;18593;51.426;7.030;2023-04-25T13:49:01;5.82;;;1.75;;
32080;SDS011;18593;51.426;7.030;2023-04-25T13:51:28;5.97;;;2.05;;
32080;SDS011;18593;51.426;7.030;2023-04-25T13:53:55;5.80;;;1.52;;
32080;SDS011;18593;51.426;7.030;2023-04-25T13:56:22;6.43;;;1.70;;
32080;SDS011;18593;51.426;7.030;2023-04-25T13:58:50;9.38;;;1.85;;
32080;SDS011;18593;51.426;7.030;2023-04-25T14:01:17;8.02;;;1.67;;
32080;SDS011;18593;51.426;7.030;2023-04-25T14:03:46;6.47;;;1.45;;
32080;SDS011;18593;51.426;7.030;2023-04-25T14:06:14;7.82;;;1.50;;
32080;SDS011;18593;51.426;7.030;2023-04-25T14:08:47;6.60;;;1.65;;
32080;SDS011;18593;51.426;7.030;2023-04-25T14:11:15;7.72;;;1.50;;
32080;SDS011;18593;51.426;7.030;2023-04-25T14:13:43;9.10;;;1.67;;
32080;SDS011;18593;51.426;7.030;2023-04-25T14:16:10;7.60;;;1.65;;
32080;SDS011;18593;51.426;7.030;2023-04-25T14:18:38;7.35;;;1.60;;
32080;SDS011;18593;51.426;7.030;2023-04-25T14:21:05;6.05;;;1.73;;
32080;SDS011;18593;51.426;7.030;2023-04-25T14:23:33;8.77;;;1.70;;
32080;SDS011;18593;51.426;7.030;2023-04-25T14:26:01;6.72;;;1.60;;
32080;SDS011;18593;51.426;7.030;2023-04-25T14:28:28;6.53;;;1.80;;
32080;SDS011;18593;51.426;7.030;2023-04-25T14:30:55;8.65;;;1.48;;
32080;SDS011;18593;51.426;7.030;2023-04-25T14:33:23;6.70;;;1.42;;
32080;SDS011;18593;51.426;7.030;2023-04-25T14:35:50;9.35;;;1.73;;
32080;SDS011;18593;51.426;7.030;2023-04-25T14:38:18;7.15;;;1.88;;
32080;SDS011;18593;51.426;7.030;2023-04-25T14:40:49;4.32;;;1.15;;
32080;SDS011;18593;51.426;7.030;2023-04-25T14:43:17;4.55;;;1.20;;
32080;SDS011;18593;51.426;7.030;2023-04-25T14:45:44;4.28;;;1.40;;
32080;SDS011;18593;51.426;7.030;2023-04-25T14:48:11;5.00;;;1.40;;
32080;SDS011;18593;51.426;7.030;2023-04-25T14:50:39;5.88;;;1.45;;
32080;SDS011;18593;51.426;7.030;2023-04-25T14:53:06;6.80;;;1.92;;
32080;SDS011;18593;51.426;7.030;2023-04-25T14:55:33;9.02;;;1.90;;
32080;SDS011;18593;51.426;7.030;2023-04-25T14:58:02;5.07;;;1.17;;
32080;SDS011;18593;51.426;7.030;2023-04-25T15:00:29;7.03;;;1.38;;
32080;SDS011;18593;51.426;7.030;2023-04-25T15:02:56;9.50;;;1.63;;